WetterOnline ( https://www.wetteronline.de )

Wetter aktuell List

Aktuelles Wetter: List/Sylt (29m)

6-stündlich | Neueste Meldungen
Ortszeit Temperatur Wetter
Mo, 27.05. 2:00 11.9° C bewölkt
So, 26.05. 20:00 12.4° C bedeckt
So, 26.05. 14:00 11.8° C Sprühregen
So, 26.05. 8:00 11.3° C Sprühregen
So, 26.05. 2:00 10.7° C wolkig
Sa, 25.05. 20:00 11.0° C bedeckt
Sa, 25.05. 14:00 11.5° C bedeckt
Sa, 25.05. 8:00 10.8° C bedeckt
Ortszeit Temperatur Wetter
Mo, 27.05. 6:00 11.4° C bewölkt
Mo, 27.05. 5:40 11.5° C bedeckt
Mo, 27.05. 5:30 11.5° C bedeckt
Mo, 27.05. 5:20 11.5° C bedeckt
Mo, 27.05. 5:10 11.6° C bedeckt
Mo, 27.05. 5:00 11.7° C bewölkt
Mo, 27.05. 4:50 11.7° C bewölkt
Mo, 27.05. 4:30 11.7° C wolkig
Mo, 27.05. 4:00 11.9° C bedeckt, nach Regen
Mo, 27.05. 3:30 11.9° C bedeckt
Mo, 27.05. 3:00 11.9° C bedeckt
Ortszeit Relative Feuchte Sichtweite
Mo, 27.05. 2:00 91% 20 km
So, 26.05. 20:00 98% 2.2 km
So, 26.05. 14:00 95% 3.8 km
So, 26.05. 8:00 95% 5.0 km
So, 26.05. 2:00 82% 30 km
Sa, 25.05. 20:00 82% 29 km
Sa, 25.05. 14:00 73% 35 km
Sa, 25.05. 8:00 75% 35 km
Ortszeit Relative Feuchte Sichtweite
Mo, 27.05. 6:00 86% 19 km
Mo, 27.05. 5:40 87% -
Mo, 27.05. 5:30 85% 27 km
Mo, 27.05. 5:20 85% -
Mo, 27.05. 5:10 86% -
Mo, 27.05. 5:00 88% 21 km
Mo, 27.05. 4:50 88% -
Mo, 27.05. 4:30 90% 17 km
Mo, 27.05. 4:00 89% 21 km
Mo, 27.05. 3:30 88% -
Mo, 27.05. 3:00 89% 24 km
Ortszeit Niederschlagsmenge Niederschlagsart
Mo, 27.05. 2:00 3 l/m2 in 6 Std. Regen
So, 26.05. 20:00 7 l/m2 in 12 Std. Regen
So, 26.05. 14:00 0.3 l/m2 in 6 Std. Regen
So, 26.05. 8:00 0.8 l/m2 in 12 Std. Regen
So, 26.05. 2:00 0.0 l/m2 in 6 Std. -
Sa, 25.05. 20:00 0.0 l/m2 in 12 Std. -
Sa, 25.05. 14:00 0.0 l/m2 in 6 Std. -
Sa, 25.05. 8:00 0.1 l/m2 in 12 Std. Sprühregen
Ortszeit Niederschlagsmenge Niederschlagsart
Mo, 27.05. 6:00 0.0 l/m2 in 1 Std. -
Mo, 27.05. 5:40 keine Meldung -
Mo, 27.05. 5:30 0.0 l/m2 in 1 Std. -
Mo, 27.05. 5:20 keine Meldung -
Mo, 27.05. 5:10 keine Meldung -
Mo, 27.05. 5:00 0.0 l/m2 in 1 Std. Regen
Mo, 27.05. 4:50 keine Meldung -
Mo, 27.05. 4:30 0.0 l/m2 in 1 Std. -
Mo, 27.05. 4:00 0.1 l/m2 in 1 Std. Sprühregen
Mo, 27.05. 3:30 0.1 l/m2 in 1 Std. -
Mo, 27.05. 3:00 0.1 l/m2 in 1 Std. Regen
Ortszeit Stärke Spitze Richtung
km/h Bft. km/h Grad Sektor
Mo, 27.05. 2:00 37 5 61 250° W
So, 26.05. 20:00 29 5 47 230° SW
So, 26.05. 14:00 15 3 52 270° W
So, 26.05. 8:00 36 5 58 230° SW
So, 26.05. 2:00 24 4 43 240° SW
Sa, 25.05. 20:00 30 5 44 270° W
Sa, 25.05. 14:00 31 5 44 310° NW
Sa, 25.05. 8:00 30 5 46 300° NW
Ortszeit Stärke Spitze Richtung
km/h Bft. km/h Grad Sektor
Mo, 27.05. 6:00 31 5 48 260° W
Mo, 27.05. 5:40 31 5 - 260° W
Mo, 27.05. 5:30 32 5 50 260° W
Mo, 27.05. 5:20 32 5 - 260° W
Mo, 27.05. 5:10 33 5 - 250° W
Mo, 27.05. 5:00 35 5 52 250° W
Mo, 27.05. 4:50 35 5 - 250° W
Mo, 27.05. 4:30 35 5 48 250° W
Mo, 27.05. 4:00 31 5 48 260° W
Mo, 27.05. 3:30 31 5 48 260° W
Mo, 27.05. 3:00 36 5 50 250° W
Ortszeit Untergrenze Bedeckung Gattung
total tief tief mittel hoch
Mo, 27.05. 2:00 510 m 7/8 7/8 - - -
So, 26.05. 20:00 30 m 8/8 8/8 - - -
So, 26.05. 14:00 120 m 8/8 8/8 - - -
So, 26.05. 8:00 150 m 8/8 8/8 - - -
So, 26.05. 2:00 390 m 8/8 3/8 - - -
Sa, 25.05. 20:00 330 m 8/8 8/8 - - -
Sa, 25.05. 14:00 510 m 8/8 8/8 - - -
Sa, 25.05. 8:00 510 m 8/8 8/8 - - -
Ortszeit Bedeckungsgrad in Achtel und Wolkenuntergrenze
Mo, 27.05. 6:00 6(540m) 7(1800m)
Mo, 27.05. 5:40 6(540m) 8(1800m)
Mo, 27.05. 5:30 8(510m) 8(1800m)
Mo, 27.05. 5:20 8(510m)
Mo, 27.05. 5:10 8(540m)
Mo, 27.05. 5:00 6(570m) 7(750m)
Mo, 27.05. 4:50 6(570m) 7(750m)
Mo, 27.05. 4:30 1(360m) 3(510m) 6(780m)
Mo, 27.05. 4:00 8(750m)
Mo, 27.05. 3:30 1(450m) 8(660m)
Mo, 27.05. 3:00 4(300m) 6(510m) 8(690m)
Ortszeit Luftdruck NN (hPa) Tendenz (hPa in 3 Std.)
Mo, 27.05. 2:00 1002 - 0,1
So, 26.05. 20:00 1003 - 2,0
So, 26.05. 14:00 1007 0,0
So, 26.05. 8:00 1007 - 2,9
So, 26.05. 2:00 1013 - 1,7
Sa, 25.05. 20:00 1015 - 0,8
Sa, 25.05. 14:00 1016 + 0,9
Sa, 25.05. 8:00 1014 + 0,6
Ortszeit Luftdruck NN (hPa) Tendenz (hPa in 3 Std.)
Mo, 27.05. 6:00 1003 + 0,3
Mo, 27.05. 5:40 1002 keine Meldung
Mo, 27.05. 5:30 1002 + 0,1
Mo, 27.05. 5:20 1002 keine Meldung
Mo, 27.05. 5:10 1002 keine Meldung
Mo, 27.05. 5:00 1002 + 0,1
Mo, 27.05. 4:50 1002 keine Meldung
Mo, 27.05. 4:30 1002 + 0,1
Mo, 27.05. 4:00 1002 - 0,1
Mo, 27.05. 3:30 1002 - 0,1
Mo, 27.05. 3:00 1002 0,0
Ortszeit Schneehöhe (cm)
Mo, 27.05. 2:00 0
So, 26.05. 20:00 0
So, 26.05. 14:00 0
So, 26.05. 8:00 0
So, 26.05. 2:00 0
Sa, 25.05. 20:00 0
Sa, 25.05. 14:00 0
Sa, 25.05. 8:00 0
Ortszeit Schneehöhe (cm)
Mo, 27.05. 6:00 0
Mo, 27.05. 5:40 0
Mo, 27.05. 5:30 0
Mo, 27.05. 5:20 0
Mo, 27.05. 5:10 0
Mo, 27.05. 5:00 0
Mo, 27.05. 4:50 0
Mo, 27.05. 4:30 0
Mo, 27.05. 4:00 0
Mo, 27.05. 3:30 0
Mo, 27.05. 3:00 0
Link zu dieser Seite / Seite empfehlen

Das Wetter in ...